首页
METAR-TAF:

METAR-TAF

机场 :

阿拉木圖, 哈萨克斯坦

阿拉木图国际机场

纬度: 43-14N, 经度: 076-56E, 海拔: 847米

当前天气观测

该预报发布于11分钟前的00:00 UTC
风速4节,风向西
温度 -2°C
湿度 100%
气压 1018 hPa
能見度: 2200
阴天层高于200英尺
轻雾

METAR: UAAA 250000Z 27002MPS 2200 BR OVC002 M02/M02 Q1018 R88/91//50 NOSIG RMK QBB070

时间: 06:11 (00:11 UTC)

预报

该预报发布于1小时和11分钟前的23:00 UTC
预报有效从25日的 00点(UTC)到 25日的 24点(UTC)
风速10节,风向西
能見度: 1200
多云层高于1000英尺
多云层高于10000英尺
轻雾, 烟
短暂存在
从 25日的 00点(UTC)到 25日的 06点(UTC)
能見度: 0200
层高于100英尺
小雪, 冻雾
成为
从 25日的 07点(UTC)到 25日的 08点(UTC)
能見度: 2500
散云层高于600英尺
多云层高于2000英尺, 积雨云.
小阵雨
短暂存在
从 25日的 11点(UTC)到 25日的 24点(UTC)
能見度: 0300
层高于200英尺
阵雨, 雪, 冻雾

TAF: UAAA 242300Z 2500/2524 26005MPS 1200 BR FU BKN010 BKN100 TX07/2509Z TNM03/2501Z TEMPO 2500/2506 0200 -SN FZFG VV001 BECMG 2507/2508 2500 -SHRA SCT006 BKN020CB TEMPO 2511/2524 0300 SHRASN FZFG VV002

超过4000个机场的气象观测和天气预报(METAR&TAF报告)。

可查询的气象台以黄色和红色小点在地图上表示。

将鼠标移到小点上方,可查看气象台名称。

然后点击查看天气观测和预报。

如需切换地图:点击带黑十字的绿色按钮放大地图;点击带横线的绿色按钮缩小地图;或者点击绿色箭头查看邻近地区的地图。


METAR-TAF: